createdAt,value
2017-10-16T00:00:51.070Z,16.52
2017-10-16T00:03:20.273Z,16.50
2017-10-16T00:05:51.005Z,16.50
2017-10-16T00:08:21.638Z,16.46
2017-10-16T00:10:51.008Z,16.45
2017-10-16T00:13:21.016Z,16.42
2017-10-16T00:15:50.481Z,16.41
2017-10-16T00:18:20.628Z,16.38
2017-10-16T00:20:49.767Z,16.36
2017-10-16T00:23:18.969Z,16.34
2017-10-16T00:25:49.109Z,16.29
2017-10-16T00:28:19.023Z,16.25
2017-10-16T00:30:48.300Z,16.23
2017-10-16T00:33:17.624Z,16.21
2017-10-16T00:35:46.834Z,16.19
2017-10-16T00:38:16.662Z,16.19
2017-10-16T00:40:46.293Z,16.16
2017-10-16T00:43:15.615Z,16.15
2017-10-16T00:45:44.891Z,16.13
2017-10-16T00:48:14.125Z,16.11
2017-10-16T00:50:44.133Z,16.09
2017-10-16T00:53:13.262Z,16.07
2017-10-16T00:55:42.437Z,16.06
2017-10-16T00:58:11.570Z,16.04
2017-10-16T01:00:40.745Z,16.03
2017-10-16T01:03:10.653Z,16.02
2017-10-16T01:05:39.759Z,15.99
2017-10-16T01:08:08.855Z,15.97
2017-10-16T01:10:38.089Z,15.94
2017-10-16T01:13:07.184Z,15.93
2017-10-16T01:15:36.319Z,15.91
2017-10-16T01:18:05.550Z,15.88
2017-10-16T01:20:34.674Z,15.88
2017-10-16T01:23:03.815Z,15.88
2017-10-16T01:25:33.274Z,15.88
2017-10-16T01:28:03.174Z,15.87
2017-10-16T01:30:32.314Z,15.86
2017-10-16T01:33:02.132Z,15.85
2017-10-16T01:35:32.014Z,15.86
2017-10-16T01:38:01.175Z,15.82
2017-10-16T01:40:30.341Z,15.77
2017-10-16T01:42:59.495Z,15.77
2017-10-16T01:45:28.608Z,15.77
2017-10-16T01:47:57.798Z,15.78
2017-10-16T01:50:27.724Z,15.76
2017-10-16T01:52:57.638Z,15.73
2017-10-16T01:55:27.300Z,15.71
2017-10-16T01:57:56.428Z,15.68
2017-10-16T02:00:25.804Z,15.65
2017-10-16T02:02:55.744Z,15.66
2017-10-16T02:05:24.859Z,15.65
2017-10-16T02:07:53.951Z,15.61
2017-10-16T02:10:24.404Z,15.59
2017-10-16T02:12:53.504Z,15.57
2017-10-16T02:15:22.615Z,15.57
2017-10-16T02:17:51.984Z,15.56
2017-10-16T02:20:21.878Z,15.55
2017-10-16T02:22:51.790Z,15.54
2017-10-16T02:25:20.915Z,15.53
2017-10-16T02:27:50.800Z,15.52
2017-10-16T02:30:20.059Z,15.50
2017-10-16T02:32:49.189Z,15.48
2017-10-16T02:35:19.069Z,15.47
2017-10-16T02:37:48.194Z,15.46
2017-10-16T02:40:17.618Z,15.45
2017-10-16T02:42:46.742Z,15.43
2017-10-16T02:45:16.634Z,15.42
2017-10-16T02:47:45.869Z,15.40
2017-10-16T02:50:14.971Z,15.40
2017-10-16T02:52:44.112Z,15.39
2017-10-16T02:55:15.985Z,15.38
2017-10-16T02:57:45.884Z,15.36
2017-10-16T03:00:15.349Z,15.35
2017-10-16T03:02:44.824Z,15.34
2017-10-16T03:05:13.938Z,15.32
2017-10-16T03:07:43.895Z,15.29
2017-10-16T03:10:13.961Z,15.29
2017-10-16T03:12:43.054Z,15.28
2017-10-16T03:15:12.331Z,15.28
2017-10-16T03:17:42.225Z,15.24
2017-10-16T03:20:11.335Z,15.24
2017-10-16T03:22:40.418Z,15.23
2017-10-16T03:25:10.358Z,15.26
2017-10-16T03:27:39.462Z,15.26
2017-10-16T03:30:08.561Z,15.27
2017-10-16T03:32:37.815Z,15.27
2017-10-16T03:35:16.962Z,15.28
2017-10-16T03:37:47.166Z,15.27
2017-10-16T03:40:16.382Z,15.27
2017-10-16T03:42:45.741Z,15.26
2017-10-16T03:45:16.454Z,15.28
2017-10-16T03:47:45.629Z,15.28
2017-10-16T03:50:14.720Z,15.31
2017-10-16T03:52:43.874Z,15.29
2017-10-16T03:55:12.983Z,15.29
2017-10-16T03:57:42.102Z,15.26
2017-10-16T04:00:11.370Z,15.28
2017-10-16T04:02:40.477Z,15.27
2017-10-16T04:05:09.557Z,15.28
2017-10-16T04:07:38.670Z,15.28
2017-10-16T04:10:08.556Z,15.26
2017-10-16T04:12:37.687Z,15.28
2017-10-16T04:15:06.959Z,15.23
2017-10-16T04:17:36.772Z,15.24
2017-10-16T04:20:06.903Z,15.24
2017-10-16T04:22:36.064Z,15.23
2017-10-16T04:25:05.150Z,15.20
2017-10-16T04:27:34.247Z,15.20
2017-10-16T04:30:04.378Z,15.20
2017-10-16T04:32:33.468Z,15.17
2017-10-16T04:35:02.594Z,15.16
2017-10-16T04:37:31.726Z,15.15
2017-10-16T04:40:00.823Z,15.12
2017-10-16T04:42:29.915Z,15.10
2017-10-16T04:44:59.534Z,15.11
2017-10-16T04:47:28.651Z,15.09
2017-10-16T04:49:57.773Z,15.08
2017-10-16T04:52:26.910Z,15.07
2017-10-16T04:54:55.997Z,15.04
2017-10-16T04:57:25.353Z,15.04
2017-10-16T04:59:55.958Z,15.00
2017-10-16T05:02:25.096Z,14.99
2017-10-16T05:04:54.219Z,14.98
2017-10-16T05:07:24.623Z,14.97
2017-10-16T05:09:53.744Z,14.92
2017-10-16T05:12:22.850Z,14.89
2017-10-16T05:14:52.111Z,14.89
2017-10-16T05:17:21.247Z,14.89
2017-10-16T05:19:50.369Z,14.86
2017-10-16T05:22:20.338Z,14.85
2017-10-16T05:24:50.206Z,14.85
2017-10-16T05:27:19.349Z,14.86
2017-10-16T05:29:48.954Z,14.85
2017-10-16T05:32:18.132Z,14.85
2017-10-16T05:34:47.779Z,14.84
2017-10-16T05:37:17.370Z,14.82
2017-10-16T05:39:46.536Z,14.81
2017-10-16T05:42:15.910Z,14.81
2017-10-16T05:44:45.243Z,14.78
2017-10-16T05:47:14.383Z,14.72
2017-10-16T05:49:44.297Z,14.74
2017-10-16T05:52:13.961Z,14.73
2017-10-16T05:54:43.050Z,14.66
2017-10-16T05:57:12.282Z,14.60
2017-10-16T05:59:41.460Z,14.65
2017-10-16T06:02:10.606Z,14.65
2017-10-16T06:04:39.743Z,14.62
2017-10-16T06:07:09.173Z,14.63
2017-10-16T06:09:38.340Z,14.70
2017-10-16T06:12:09.831Z,14.76
2017-10-16T06:14:39.756Z,14.86
2017-10-16T06:17:09.518Z,14.88
2017-10-16T06:19:38.627Z,14.98
2017-10-16T06:22:07.810Z,15.06
2017-10-16T06:24:37.458Z,15.14
2017-10-16T06:27:06.856Z,15.21
2017-10-16T06:29:36.406Z,15.28
2017-10-16T06:32:06.325Z,15.36
2017-10-16T06:34:35.557Z,15.41
2017-10-16T06:37:05.077Z,15.42
2017-10-16T06:39:34.205Z,15.46
2017-10-16T06:42:04.170Z,15.52
2017-10-16T06:44:34.124Z,15.61
2017-10-16T06:47:04.296Z,15.72
2017-10-16T06:49:33.419Z,15.76
2017-10-16T06:52:04.436Z,15.82
2017-10-16T06:54:33.575Z,15.83
2017-10-16T06:57:02.700Z,15.89
2017-10-16T06:59:32.703Z,15.92
2017-10-16T07:02:01.800Z,15.98
2017-10-16T07:04:30.935Z,16.03
2017-10-16T07:07:00.235Z,16.07
2017-10-16T07:09:29.330Z,16.12
2017-10-16T07:11:58.459Z,16.20
2017-10-16T07:14:27.745Z,16.20
2017-10-16T07:16:57.373Z,16.23
2017-10-16T07:19:26.486Z,16.32
2017-10-16T07:21:55.944Z,16.40
2017-10-16T07:24:25.039Z,16.51
2017-10-16T07:26:55.138Z,16.59
2017-10-16T07:29:24.985Z,16.53
2017-10-16T07:31:54.125Z,16.63
2017-10-16T07:34:23.214Z,16.76
2017-10-16T07:36:53.640Z,16.83
2017-10-16T07:39:22.902Z,16.94
2017-10-16T07:41:52.862Z,17.06
2017-10-16T07:44:22.299Z,17.06
2017-10-16T07:46:51.501Z,17.11
2017-10-16T07:49:22.126Z,17.06
2017-10-16T07:51:51.571Z,17.06
2017-10-16T07:54:20.790Z,17.13
2017-10-16T07:56:49.919Z,17.19
2017-10-16T07:59:20.353Z,17.25
2017-10-16T08:01:49.706Z,17.27
2017-10-16T08:04:19.655Z,17.30
2017-10-16T08:06:49.403Z,17.38
2017-10-16T08:09:19.392Z,17.27
2017-10-16T08:11:48.543Z,17.23
2017-10-16T08:14:18.024Z,17.23
2017-10-16T08:16:47.320Z,17.22
2017-10-16T08:19:16.533Z,17.23
2017-10-16T08:21:46.166Z,17.27
2017-10-16T08:24:15.358Z,17.23
2017-10-16T08:26:44.521Z,17.18
2017-10-16T08:29:14.578Z,17.09
2017-10-16T08:31:44.496Z,17.08
2017-10-16T08:34:14.454Z,17.11
2017-10-16T08:36:44.383Z,17.18
2017-10-16T08:39:13.645Z,17.26
2017-10-16T08:41:42.763Z,17.30
2017-10-16T08:44:12.340Z,17.46
2017-10-16T08:46:41.514Z,17.66
2017-10-16T08:49:12.296Z,17.81
2017-10-16T08:51:42.471Z,17.88
2017-10-16T08:54:13.250Z,18.02
2017-10-16T08:56:42.390Z,18.08
2017-10-16T08:59:12.306Z,18.16
2017-10-16T09:01:42.199Z,18.20
2017-10-16T09:04:11.423Z,18.20
2017-10-16T09:06:42.247Z,18.19
2017-10-16T09:09:12.292Z,18.17
2017-10-16T09:11:42.352Z,18.13
2017-10-16T09:14:12.921Z,18.07
2017-10-16T09:16:43.784Z,18.08
2017-10-16T09:19:15.128Z,18.20
2017-10-16T09:21:44.324Z,18.30
2017-10-16T09:24:14.414Z,18.37
2017-10-16T09:26:45.359Z,18.60
2017-10-16T09:29:15.562Z,18.78
2017-10-16T09:31:44.758Z,18.83
2017-10-16T09:34:14.288Z,18.99
2017-10-16T09:36:44.791Z,19.21
2017-10-16T09:39:14.548Z,19.42
2017-10-16T09:41:43.814Z,19.49
2017-10-16T09:44:13.743Z,19.48
2017-10-16T09:46:43.691Z,19.55
2017-10-16T09:49:15.005Z,19.44
2017-10-16T09:51:45.173Z,19.42
2017-10-16T09:54:14.413Z,19.47
2017-10-16T09:56:44.494Z,19.65
2017-10-16T09:59:13.960Z,19.78
2017-10-16T10:01:47.738Z,19.65
2017-10-16T10:04:17.047Z,19.70
2017-10-16T10:06:46.432Z,19.81
2017-10-16T10:09:15.799Z,20.04
2017-10-16T10:11:46.742Z,20.38
2017-10-16T10:14:15.899Z,20.84
2017-10-16T10:16:46.223Z,21.50
2017-10-16T10:19:15.367Z,22.22
2017-10-16T10:21:44.597Z,22.69
2017-10-16T10:24:13.862Z,22.79
2017-10-16T10:26:43.893Z,22.89
2017-10-16T10:29:13.063Z,22.95
2017-10-16T10:31:43.590Z,22.98
2017-10-16T10:34:12.692Z,22.94
2017-10-16T10:36:43.348Z,22.95
2017-10-16T10:39:14.189Z,23.32
2017-10-16T10:41:43.302Z,23.64
2017-10-16T10:44:12.429Z,24.25
2017-10-16T10:46:42.372Z,24.78
2017-10-16T10:49:11.487Z,25.29
2017-10-16T10:51:40.758Z,25.47
2017-10-16T10:54:09.890Z,26.19
2017-10-16T10:56:39.771Z,26.66
2017-10-16T10:59:08.916Z,26.82
2017-10-16T11:01:38.071Z,27.05
2017-10-16T11:04:07.211Z,26.86
2017-10-16T11:06:36.331Z,26.88
2017-10-16T11:09:06.232Z,26.73
2017-10-16T11:11:35.372Z,26.08
2017-10-16T11:14:04.501Z,25.82
2017-10-16T11:16:33.706Z,25.59
2017-10-16T11:19:02.867Z,25.47
2017-10-16T11:21:32.059Z,25.53
2017-10-16T11:24:01.939Z,25.71
2017-10-16T11:26:31.047Z,25.87
2017-10-16T11:29:00.209Z,26.12
2017-10-16T11:31:29.975Z,26.47
2017-10-16T11:33:59.406Z,26.40
2017-10-16T11:36:28.517Z,26.38
2017-10-16T11:38:57.685Z,26.43
2017-10-16T11:41:26.893Z,26.46
2017-10-16T11:43:56.092Z,27.05
2017-10-16T11:46:26.322Z,27.34
2017-10-16T11:48:55.446Z,27.82
2017-10-16T11:51:24.625Z,27.92
2017-10-16T11:53:55.356Z,27.75
2017-10-16T11:56:25.687Z,27.82
2017-10-16T11:58:54.878Z,27.99
2017-10-16T12:01:24.411Z,27.78
2017-10-16T12:03:54.456Z,27.34
2017-10-16T12:06:24.359Z,27.08
2017-10-16T12:08:53.978Z,27.04
2017-10-16T12:11:23.177Z,26.58
2017-10-16T12:13:52.486Z,26.16
2017-10-16T12:16:22.147Z,25.60
2017-10-16T12:18:51.424Z,25.04
2017-10-16T12:21:20.623Z,24.75
2017-10-16T12:23:49.874Z,24.36
2017-10-16T12:26:19.145Z,23.99
2017-10-16T12:28:48.297Z,23.82
2017-10-16T12:31:18.209Z,23.75
2017-10-16T12:33:48.858Z,23.57
2017-10-16T12:36:18.063Z,23.46
2017-10-16T12:38:47.629Z,23.26
2017-10-16T12:41:17.561Z,23.27
2017-10-16T12:43:46.783Z,23.25
2017-10-16T12:46:17.367Z,23.28
2017-10-16T12:48:46.604Z,23.23
2017-10-16T12:51:15.832Z,23.26
2017-10-16T12:53:45.327Z,23.29
2017-10-16T12:56:14.464Z,23.28
2017-10-16T12:58:43.621Z,23.23
2017-10-16T13:01:12.816Z,23.24
2017-10-16T13:03:42.048Z,23.18
2017-10-16T13:06:11.248Z,23.19
2017-10-16T13:08:41.315Z,23.26
2017-10-16T13:11:11.250Z,23.18
2017-10-16T13:13:41.876Z,23.19
2017-10-16T13:16:11.082Z,23.11
2017-10-16T13:18:40.219Z,23.13
2017-10-16T13:21:10.184Z,23.27
2017-10-16T13:23:39.474Z,23.35
2017-10-16T13:26:08.673Z,23.38
2017-10-16T13:28:37.835Z,23.36
2017-10-16T13:31:08.631Z,23.40
2017-10-16T13:33:38.516Z,23.31
2017-10-16T13:36:07.621Z,23.20
2017-10-16T13:38:37.934Z,22.91
2017-10-16T13:41:07.129Z,22.83
2017-10-16T13:43:36.363Z,22.83
2017-10-16T13:46:05.826Z,22.75
2017-10-16T13:48:35.029Z,22.68
2017-10-16T13:51:04.161Z,22.53
2017-10-16T13:53:34.199Z,22.56
2017-10-16T13:56:03.407Z,22.48
2017-10-16T13:58:32.603Z,22.48
2017-10-16T14:01:01.868Z,22.43
2017-10-16T14:03:31.029Z,22.37
2017-10-16T14:06:00.184Z,22.40
2017-10-16T14:08:31.515Z,22.42
2017-10-16T14:11:01.563Z,22.39
2017-10-16T14:13:30.717Z,22.34
2017-10-16T14:15:59.892Z,22.32
2017-10-16T14:18:29.055Z,22.23
2017-10-16T14:20:58.189Z,22.20
2017-10-16T14:23:27.453Z,22.17
2017-10-16T14:25:56.627Z,22.14
2017-10-16T14:28:25.776Z,22.18
2017-10-16T14:30:56.427Z,22.22
2017-10-16T14:33:25.702Z,22.21
2017-10-16T14:35:55.111Z,22.19
2017-10-16T14:38:24.327Z,22.11
2017-10-16T14:40:53.535Z,22.13
2017-10-16T14:43:23.712Z,22.15
2017-10-16T14:45:53.218Z,22.18
2017-10-16T14:48:22.446Z,22.24
2017-10-16T14:50:51.661Z,22.29
2017-10-16T14:53:22.210Z,22.35
2017-10-16T14:55:51.431Z,22.28
2017-10-16T14:58:20.582Z,22.21
2017-10-16T15:00:50.880Z,22.12
2017-10-16T15:03:20.156Z,22.04
2017-10-16T15:05:49.358Z,21.95
2017-10-16T15:08:18.659Z,21.93
2017-10-16T15:10:47.853Z,21.86
2017-10-16T15:13:17.810Z,21.81
2017-10-16T15:15:47.585Z,21.75
2017-10-16T15:18:16.791Z,21.72
2017-10-16T15:20:46.832Z,21.69
2017-10-16T15:23:16.545Z,21.65
2017-10-16T15:25:45.742Z,21.63
2017-10-16T15:28:15.744Z,21.59
2017-10-16T15:30:44.968Z,21.57
2017-10-16T15:33:14.262Z,21.53
2017-10-16T15:35:43.409Z,21.47
2017-10-16T15:38:13.218Z,21.40
2017-10-16T15:40:42.529Z,21.33
2017-10-16T15:43:11.891Z,21.27
2017-10-16T15:45:41.898Z,21.24
2017-10-16T15:48:11.993Z,21.18
2017-10-16T15:50:41.181Z,21.11
2017-10-16T15:53:11.115Z,21.04
2017-10-16T15:55:40.446Z,21.00
2017-10-16T15:58:11.542Z,20.91
2017-10-16T16:00:41.122Z,20.89
2017-10-16T16:03:11.090Z,20.86
2017-10-16T16:05:40.232Z,20.81
2017-10-16T16:08:09.664Z,20.76
2017-10-16T16:10:38.807Z,20.71
2017-10-16T16:13:08.831Z,20.66
2017-10-16T16:15:38.189Z,20.59
2017-10-16T16:18:07.354Z,20.53
2017-10-16T16:20:37.609Z,20.49
2017-10-16T16:23:06.912Z,20.41
2017-10-16T16:25:36.279Z,20.34
2017-10-16T16:28:05.603Z,20.30
2017-10-16T16:30:36.618Z,20.26
2017-10-16T16:33:07.037Z,20.22
2017-10-16T16:35:39.314Z,20.17
2017-10-16T16:38:11.479Z,20.13
2017-10-16T16:40:42.015Z,20.08
2017-10-16T16:43:11.242Z,20.04
2017-10-16T16:45:43.812Z,19.98
2017-10-16T16:48:19.368Z,19.94
2017-10-16T16:50:49.637Z,19.85
2017-10-16T16:53:31.034Z,19.78
2017-10-16T16:56:04.865Z,19.69
2017-10-16T16:58:35.323Z,19.65
2017-10-16T17:01:06.720Z,19.60
2017-10-16T17:03:37.806Z,19.60
2017-10-16T17:06:07.775Z,19.58
2017-10-16T17:08:41.171Z,19.56
2017-10-16T17:11:11.843Z,19.57
2017-10-16T17:13:43.469Z,19.55
2017-10-16T17:16:17.812Z,19.53
2017-10-16T17:18:51.542Z,19.50
2017-10-16T17:21:22.427Z,19.47
2017-10-16T17:23:51.574Z,19.44
2017-10-16T17:26:22.707Z,19.44
2017-10-16T17:28:55.010Z,19.42
2017-10-16T17:31:27.516Z,19.41
2017-10-16T17:33:57.497Z,19.36
2017-10-16T17:36:26.813Z,19.31
2017-10-16T17:38:56.066Z,19.26
2017-10-16T17:41:25.474Z,19.20
2017-10-16T17:43:55.578Z,19.15
2017-10-16T17:46:25.406Z,19.11
2017-10-16T17:49:00.188Z,19.11
2017-10-16T17:51:32.321Z,19.10
2017-10-16T17:54:02.898Z,19.11
2017-10-16T17:56:32.081Z,19.10
2017-10-16T17:59:01.219Z,19.06
2017-10-16T18:01:31.155Z,19.03
2017-10-16T18:04:01.909Z,18.97
2017-10-16T18:06:31.827Z,18.90
2017-10-16T18:09:03.463Z,18.81
2017-10-16T18:11:33.812Z,18.67
2017-10-16T18:14:02.992Z,18.67
2017-10-16T18:16:33.344Z,18.65
2017-10-16T18:19:03.422Z,18.60
2017-10-16T18:21:32.787Z,18.56
2017-10-16T18:24:03.145Z,18.51
2017-10-16T18:26:33.042Z,18.46
2017-10-16T18:29:02.954Z,18.44
2017-10-16T18:31:33.740Z,18.42
2017-10-16T18:34:03.550Z,18.41
2017-10-16T18:36:32.950Z,18.40
2017-10-16T18:39:03.014Z,18.40
2017-10-16T18:41:34.074Z,18.41
2017-10-16T18:44:04.816Z,18.40
2017-10-16T18:46:33.906Z,18.38
2017-10-16T18:49:03.159Z,18.39
2017-10-16T18:51:35.225Z,18.41
2017-10-16T18:54:04.369Z,18.45
2017-10-16T18:56:33.765Z,18.46
2017-10-16T18:59:04.495Z,18.46
2017-10-16T19:01:34.693Z,18.45
2017-10-16T19:04:03.866Z,18.45
2017-10-16T19:06:33.198Z,18.45
2017-10-16T19:09:02.671Z,18.42
2017-10-16T19:11:31.800Z,18.42
2017-10-16T19:14:02.622Z,18.41
2017-10-16T19:16:31.757Z,18.44
2017-10-16T19:19:02.275Z,18.45
2017-10-16T19:21:34.155Z,18.45
2017-10-16T19:24:07.383Z,18.44
2017-10-16T19:26:37.948Z,18.43
2017-10-16T19:29:07.159Z,18.43
2017-10-16T19:31:36.474Z,18.44
2017-10-16T19:34:06.103Z,18.43
2017-10-16T19:36:36.274Z,18.46
2017-10-16T19:39:05.480Z,18.44
2017-10-16T19:41:34.658Z,18.46
2017-10-16T19:44:04.093Z,18.45
2017-10-16T19:46:33.279Z,18.44
2017-10-16T19:49:03.488Z,18.43
2017-10-16T19:51:33.418Z,18.42
2017-10-16T19:54:04.160Z,18.41
2017-10-16T19:56:34.118Z,18.42
2017-10-16T19:59:03.255Z,18.41
2017-10-16T20:01:32.403Z,18.41
2017-10-16T20:04:05.376Z,18.43
2017-10-16T20:06:34.618Z,18.44
2017-10-16T20:09:04.452Z,18.44
2017-10-16T20:11:34.546Z,18.43
2017-10-16T20:14:03.716Z,18.45
2017-10-16T20:16:32.849Z,18.46
2017-10-16T20:19:03.171Z,18.45
2017-10-16T20:21:33.851Z,18.43
2017-10-16T20:24:03.057Z,18.43
2017-10-16T20:26:32.247Z,18.44
2017-10-16T20:29:01.421Z,18.44
2017-10-16T20:31:30.634Z,18.46
2017-10-16T20:34:00.048Z,18.48
2017-10-16T20:36:29.238Z,18.50
2017-10-16T20:38:59.183Z,18.53
2017-10-16T20:41:28.764Z,18.54
2017-10-16T20:43:59.074Z,18.57
2017-10-16T20:46:28.277Z,18.58
2017-10-16T20:48:59.353Z,18.61
2017-10-16T20:51:28.563Z,18.62
2017-10-16T20:53:58.705Z,18.65
2017-10-16T20:56:28.305Z,18.66
2017-10-16T20:58:57.522Z,18.69
2017-10-16T21:01:27.570Z,18.70
2017-10-16T21:03:57.678Z,18.73
2017-10-16T21:06:27.685Z,18.73
2017-10-16T21:08:56.868Z,18.73
2017-10-16T21:11:26.083Z,18.73
2017-10-16T21:13:56.028Z,18.73
2017-10-16T21:16:26.909Z,18.73
2017-10-16T21:18:57.601Z,18.69
2017-10-16T21:21:26.935Z,18.67
2017-10-16T21:23:56.442Z,18.66
2017-10-16T21:26:26.637Z,18.66
2017-10-16T21:28:55.818Z,18.65
2017-10-16T21:31:24.958Z,18.65
2017-10-16T21:33:54.188Z,18.63
2017-10-16T21:36:23.405Z,18.64
2017-10-16T21:38:52.649Z,18.64
2017-10-16T21:41:22.322Z,18.62
2017-10-16T21:43:51.589Z,18.64
2017-10-16T21:46:20.783Z,18.62
2017-10-16T21:48:50.338Z,18.61
2017-10-16T21:51:19.496Z,18.60
2017-10-16T21:53:49.587Z,18.59
2017-10-16T21:56:19.416Z,18.59
2017-10-16T21:58:48.566Z,18.56
2017-10-16T22:01:17.698Z,18.53
2017-10-16T22:03:46.997Z,18.53
2017-10-16T22:06:17.449Z,18.50
2017-10-16T22:08:46.840Z,18.49
2017-10-16T22:11:16.128Z,18.47
2017-10-16T22:13:45.447Z,18.47
2017-10-16T22:16:14.640Z,18.47
2017-10-16T22:18:44.322Z,18.44
2017-10-16T22:21:13.599Z,18.44
2017-10-16T22:23:42.844Z,18.42
2017-10-16T22:26:13.396Z,18.42
2017-10-16T22:28:42.695Z,18.41
2017-10-16T22:31:11.941Z,18.41
2017-10-16T22:33:41.213Z,18.40
2017-10-16T22:36:11.165Z,18.40
2017-10-16T22:38:40.459Z,18.40
2017-10-16T22:41:09.991Z,18.38
2017-10-16T22:43:39.182Z,18.36
2017-10-16T22:46:09.221Z,18.36
2017-10-16T22:48:43.892Z,18.36
2017-10-16T22:51:13.074Z,18.36
2017-10-16T22:53:42.299Z,18.33
2017-10-16T22:56:11.926Z,18.33
2017-10-16T22:58:41.097Z,18.35
2017-10-16T23:01:10.275Z,18.35
2017-10-16T23:03:39.574Z,18.35
2017-10-16T23:06:08.807Z,18.36
2017-10-16T23:08:38.031Z,18.34
2017-10-16T23:11:08.128Z,18.36
2017-10-16T23:13:37.308Z,18.34
2017-10-16T23:16:06.499Z,18.33
2017-10-16T23:18:35.719Z,18.34
2017-10-16T23:21:05.625Z,18.35
2017-10-16T23:23:35.622Z,18.32
2017-10-16T23:26:05.480Z,18.33
2017-10-16T23:28:35.462Z,18.33
2017-10-16T23:31:04.677Z,18.32
2017-10-16T23:33:34.298Z,18.30
2017-10-16T23:36:03.466Z,18.30
2017-10-16T23:38:33.405Z,18.30
2017-10-16T23:41:03.628Z,18.30
2017-10-16T23:43:32.817Z,18.32
2017-10-16T23:46:01.993Z,18.34
2017-10-16T23:48:31.607Z,18.35
2017-10-16T23:51:00.791Z,18.32
2017-10-16T23:53:29.992Z,18.33
2017-10-16T23:55:59.219Z,18.35
2017-10-16T23:58:28.413Z,18.35
